Time;durP1;ratioP1;P1;durP2;ratioP2;P2;SDS_P1;SDS_P2;PMS_P1;PMS_P2;Temp;Humidity;BMP_temperature;BMP_pressure;BME280_temperature;BME280_humidity;BME280_pressure;Samples;Min_cycle;Max_cycle;Signal;HPM_P1;HPM_P2
2023/05/10 00:00:38;;;;;;;6.72;3.70;;;;;;;11.95;51.77;98957.25;5026493;28;20042;-71
2023/05/10 00:03:06;;;;;;;4.10;3.35;;;;;;;11.69;52.00;98922.69;5026510;28;20092;-70
2023/05/10 00:05:33;;;;;;;3.90;2.97;;;;;;;11.95;52.10;98960.75;5025948;28;20069;-70
2023/05/10 00:08:00;;;;;;;5.65;3.15;;;;;;;11.95;52.32;98949.28;5025098;28;20042;-71
2023/05/10 00:10:27;;;;;;;6.25;3.22;;;;;;;11.96;51.90;98951.00;5024982;28;20045;-70
2023/05/10 00:12:53;;;;;;;4.18;2.92;;;;;;;11.94;51.70;98948.44;5025052;28;20038;-71
2023/05/10 00:15:20;;;;;;;4.03;3.00;;;;;;;11.93;51.88;98945.88;5025817;28;20131;-70
2023/05/10 00:17:47;;;;;;;5.25;2.80;;;;;;;11.11;51.99;98814.25;5026061;28;20092;-70
2023/05/10 00:20:15;;;;;;;6.00;3.47;;;;;;;11.89;52.59;98943.44;5025627;28;20050;-71
2023/05/10 00:22:41;;;;;;;5.50;3.65;;;;;;;11.88;52.34;98944.38;5026270;28;20100;-71
2023/05/10 00:25:09;;;;;;;4.90;3.53;;;;;;;11.90;52.22;98936.31;5025943;28;20290;-71
2023/05/10 00:27:36;;;;;;;5.32;3.72;;;;;;;11.91;52.48;98935.38;5026245;28;20088;-69
2023/05/10 00:30:03;;;;;;;5.45;3.20;;;;;;;11.91;52.61;98942.47;5025940;28;20050;-70
2023/05/10 00:32:30;;;;;;;6.35;3.47;;;;;;;11.91;52.77;98942.47;5026100;28;20049;-70
2023/05/10 00:34:57;;;;;;;6.22;4.28;;;;;;;11.85;53.08;98928.66;5026127;28;20037;-69
2023/05/10 00:37:25;;;;;;;5.53;3.80;;;;;;;11.82;53.56;98926.22;5025536;28;20241;-70
2023/05/10 00:39:51;;;;;;;4.13;3.25;;;;;;;11.78;53.24;98919.41;5025036;28;20294;-71
2023/05/10 00:42:18;;;;;;;4.35;3.05;;;;;;;11.78;53.15;98918.56;5030257;28;20048;-71
2023/05/10 00:44:46;;;;;;;6.07;3.88;;;;;;;11.77;53.42;98919.50;5029894;28;20053;-71
2023/05/10 00:47:13;;;;;;;4.60;3.17;;;;;;;11.75;53.41;98919.59;5029544;28;20048;-71
2023/05/10 00:49:40;;;;;;;5.05;3.40;;;;;;;11.20;54.04;98835.72;5028675;28;20038;-70
2023/05/10 00:52:07;;;;;;;4.10;3.03;;;;;;;11.67;53.91;98905.16;5029407;28;20052;-70
2023/05/10 00:54:35;;;;;;;6.35;4.72;;;;;;;11.66;53.94;98906.94;5028596;28;20042;-71
2023/05/10 00:57:03;;;;;;;5.57;3.25;;;;;;;11.62;53.93;98900.16;5029905;28;20049;-70
2023/05/10 00:59:30;;;;;;;4.60;3.13;;;;;;;11.58;53.89;98903.97;5029538;28;20048;-70
2023/05/10 01:01:58;;;;;;;6.38;3.38;;;;;;;11.56;54.16;98901.41;5029308;28;20084;-71
2023/05/10 01:04:26;;;;;;;4.78;3.55;;;;;;;11.54;54.67;98897.16;5029528;28;20047;-70
2023/05/10 01:06:53;;;;;;;6.65;3.55;;;;;;;11.50;54.53;98898.31;5028329;28;20049;-71
2023/05/10 01:09:20;;;;;;;5.20;3.85;;;;;;;11.21;54.40;98858.63;5029415;28;20048;-70
2023/05/10 01:11:49;;;;;;;5.32;3.22;;;;;;;11.49;54.56;98891.28;5029596;28;20038;-71
2023/05/10 01:14:19;;;;;;;4.53;3.63;;;;;;;10.73;55.26;98755.75;5028193;28;20041;-71
2023/05/10 01:16:48;;;;;;;6.10;3.55;;;;;;;11.47;54.60;98882.59;5029546;28;20065;-71
2023/05/10 01:19:19;;;;;;;5.50;3.38;;;;;;;11.06;55.04;98824.31;5028964;28;20042;-71
2023/05/10 01:21:52;;;;;;;5.20;3.83;;;;;;;11.45;55.75;98877.38;5029082;28;20053;-70
2023/05/10 01:24:47;;;;;;;4.88;3.78;;;;;;;11.41;57.14;98873.22;5028881;28;20048;-71
2023/05/10 01:27:57;;;;;;;4.05;3.40;;;;;;;11.36;57.13;98877.13;5028809;28;20065;-71
2023/05/10 01:30:57;;;;;;;5.50;3.88;;;;;;;11.31;56.81;98874.78;5029022;28;20042;-71
2023/05/10 01:33:30;;;;;;;4.60;3.70;;;;;;;11.27;56.79;98878.59;5027877;28;20050;-71
2023/05/10 01:36:06;;;;;;;4.10;3.42;;;;;;;11.26;56.32;98870.72;5028797;28;20046;-71
2023/05/10 01:38:43;;;;;;;4.70;3.70;;;;;;;11.27;56.54;98885.69;5028905;28;20100;-71
2023/05/10 01:41:26;;;;;;;5.72;3.53;;;;;;;10.49;56.69;98748.44;5029045;28;20037;-71
2023/05/10 01:44:03;;;;;;;4.40;3.45;;;;;;;11.20;56.35;98866.69;5028567;28;20084;-70
2023/05/10 01:46:35;;;;;;;4.53;3.63;;;;;;;11.19;56.54;98870.28;5028713;28;20089;-71
2023/05/10 01:49:09;;;;;;;4.70;3.53;;;;;;;11.19;56.58;98872.94;5028922;28;20053;-71
2023/05/10 01:51:41;;;;;;;7.00;4.25;;;;;;;11.21;55.75;98874.53;5028124;28;20136;-70
2023/05/10 01:54:10;;;;;;;4.57;3.80;;;;;;;11.22;55.85;98865.63;5027481;28;20045;-71
2023/05/10 01:56:40;;;;;;;6.53;3.50;;;;;;;11.20;56.10;98861.38;5028609;28;20042;-71
2023/05/10 01:59:12;;;;;;;4.78;3.80;;;;;;;11.16;55.89;98867.84;5028209;28;20042;-70
2023/05/10 02:01:40;;;;;;;6.00;3.95;;;;;;;11.11;55.85;98862.84;5028162;28;20056;-71
2023/05/10 02:04:10;;;;;;;6.45;4.72;;;;;;;11.08;57.26;98870.13;5028418;28;20072;-71
2023/05/10 02:06:40;;;;;;;8.13;3.78;;;;;;;11.04;56.16;98856.22;5028025;28;20046;-70
2023/05/10 02:09:08;;;;;;;4.65;3.95;;;;;;;11.04;56.26;98860.66;5027201;28;20045;-70
2023/05/10 02:11:38;;;;;;;4.97;3.65;;;;;;;10.60;56.10;98800.72;5028277;28;20053;-70
2023/05/10 02:14:08;;;;;;;4.60;3.50;;;;;;;11.05;56.27;98859.72;5027967;28;20065;-70
2023/05/10 02:16:37;;;;;;;5.05;4.07;;;;;;;11.04;56.34;98865.97;5027925;28;20046;-70
2023/05/10 02:19:04;;;;;;;5.55;4.22;;;;;;;11.03;56.30;98859.81;5028152;28;20045;-70
2023/05/10 02:21:34;;;;;;;5.07;4.15;;;;;;;10.85;56.93;98835.34;5028290;28;20108;-70
2023/05/10 02:24:03;;;;;;;4.07;3.60;;;;;;;10.95;56.71;98856.81;5028317;28;20053;-70
2023/05/10 02:26:32;;;;;;;5.18;3.90;;;;;;;10.92;56.82;98857.00;5026811;28;20092;-70
2023/05/10 02:28:59;;;;;;;5.28;4.22;;;;;;;10.91;56.73;98861.47;5027963;28;20320;-70
2023/05/10 02:31:27;;;;;;;5.20;3.70;;;;;;;10.90;56.54;98851.81;5027599;28;20052;-70
2023/05/10 02:33:55;;;;;;;6.63;3.80;;;;;;;10.93;56.60;98858.72;5027807;28;20049;-70
2023/05/10 02:36:23;;;;;;;5.05;3.58;;;;;;;10.94;56.96;98859.56;5026591;28;20046;-71
2023/05/10 02:38:53;;;;;;;5.95;4.22;;;;;;;10.89;57.36;98851.91;5027986;28;20108;-71
2023/05/10 02:41:23;;;;;;;5.28;3.83;;;;;;;10.87;56.76;98854.66;5026454;28;20034;-71
2023/05/10 02:43:51;;;;;;;4.80;3.67;;;;;;;10.86;57.07;98857.41;5026483;28;20084;-71
2023/05/10 02:46:18;;;;;;;4.90;3.72;;;;;;;10.84;57.21;98851.34;5027589;28;20317;-70
2023/05/10 02:48:45;;;;;;;6.18;4.50;;;;;;;10.78;57.43;98851.75;5027844;28;20042;-71
2023/05/10 02:51:17;;;;;;;7.85;4.43;;;;;;;10.73;57.74;98851.16;5026364;28;20046;-71
2023/05/10 02:53:46;;;;;;;4.40;3.38;;;;;;;10.22;57.76;98787.28;5026333;28;20323;-71
2023/05/10 02:56:29;;;;;;;5.28;4.00;;;;;;;10.63;59.29;98855.34;5026255;28;20042;-71
2023/05/10 02:58:56;;;;;;;4.97;3.70;;;;;;;10.42;57.93;98831.91;5026237;28;20037;-71
2023/05/10 03:01:23;;;;;;;5.18;4.05;;;;;;;10.54;58.51;98854.97;5027517;28;20045;-71
2023/05/10 03:03:50;;;;;;;7.13;4.47;;;;;;;10.24;58.27;98819.81;5026634;28;20220;-70
2023/05/10 03:06:17;;;;;;;5.18;4.05;;;;;;;10.45;58.36;98866.16;5026924;28;20044;-71
2023/05/10 03:08:44;;;;;;;5.00;4.22;;;;;;;10.45;58.66;98860.00;5026099;28;20052;-71
2023/05/10 03:11:32;;;;;;;4.53;3.90;;;;;;;10.42;60.16;98866.34;5026017;28;20289;-70
2023/05/10 03:14:11;;;;;;;4.55;3.92;;;;;;;10.40;60.26;98865.56;5027334;28;20050;-71
2023/05/10 03:16:46;;;;;;;4.85;3.95;;;;;;;10.39;59.63;98861.22;5026729;28;20045;-71
2023/05/10 03:19:18;;;;;;;4.90;3.70;;;;;;;10.34;59.56;98868.59;5027288;28;20115;-71
2023/05/10 03:21:51;;;;;;;5.15;4.10;;;;;;;10.32;59.39;98870.50;5026842;28;20121;-71
2023/05/10 03:24:22;;;;;;;6.28;4.05;;;;;;;10.34;59.62;98871.25;5025753;28;20380;-71
2023/05/10 03:26:53;;;;;;;4.63;3.63;;;;;;;10.36;58.80;98874.66;5026561;28;20294;-71
2023/05/10 03:29:22;;;;;;;5.43;3.97;;;;;;;10.41;58.54;98872.59;5027113;28;20182;-70
2023/05/10 03:31:49;;;;;;;5.28;4.05;;;;;;;10.42;58.68;98876.09;5026772;28;20041;-70
2023/05/10 03:34:16;;;;;;;8.50;4.00;;;;;;;10.45;58.43;98878.53;5026462;28;20037;-70
2023/05/10 03:36:42;;;;;;;4.55;3.92;;;;;;;10.43;58.57;98885.72;5026944;28;20121;-70
2023/05/10 03:39:10;;;;;;;4.63;3.83;;;;;;;10.38;58.75;98883.38;5026838;28;20056;-70
2023/05/10 03:41:36;;;;;;;5.82;3.95;;;;;;;10.34;58.75;98878.34;5026673;28;20044;-71
2023/05/10 03:44:05;;;;;;;8.60;4.63;;;;;;;10.32;59.21;98883.75;5026501;28;20045;-71
2023/05/10 03:46:31;;;;;;;6.70;3.90;;;;;;;9.94;59.08;98830.47;5026747;28;20056;-71
2023/05/10 03:48:59;;;;;;;5.68;4.13;;;;;;;10.31;58.92;98883.84;5025320;28;20096;-71
2023/05/10 03:51:27;;;;;;;5.03;4.35;;;;;;;10.28;59.09;98885.72;5026718;28;20069;-71
2023/05/10 03:53:54;;;;;;;6.40;4.00;;;;;;;10.18;59.42;98870.50;5026113;28;20057;-70
2023/05/10 03:56:21;;;;;;;5.57;4.00;;;;;;;10.16;59.78;98888.28;5026361;28;20041;-71
2023/05/10 03:58:48;;;;;;;6.15;3.55;;;;;;;10.13;60.13;98889.31;5026556;28;20084;-71
2023/05/10 04:01:16;;;;;;;5.72;4.00;;;;;;;10.11;60.01;98893.00;5026126;28;20057;-71
2023/05/10 04:03:42;;;;;;;7.03;4.38;;;;;;;10.10;59.76;98891.28;5025953;28;20042;-71
2023/05/10 04:06:11;;;;;;;5.45;4.18;;;;;;;10.09;59.78;98892.25;5025692;28;20053;-71
2023/05/10 04:08:38;;;;;;;5.22;4.22;;;;;;;10.11;59.73;98885.06;5026431;28;20202;-70
2023/05/10 04:11:08;;;;;;;4.70;3.95;;;;;;;10.09;60.33;98892.25;5026124;28;20033;-71
2023/05/10 04:13:35;;;;;;;4.35;3.95;;;;;;;10.11;59.82;98895.66;5025679;28;20049;-71
2023/05/10 04:16:01;;;;;;;5.65;4.07;;;;;;;10.12;59.64;98898.19;5024956;28;20033;-71
2023/05/10 04:18:29;;;;;;;5.68;4.30;;;;;;;10.12;59.62;98894.69;5024934;28;20298;-70
2023/05/10 04:20:56;;;;;;;5.15;4.65;;;;;;;10.14;59.78;98892.81;5025568;28;20058;-71
2023/05/10 04:23:23;;;;;;;6.57;4.45;;;;;;;10.14;59.46;98906.91;5024816;28;20045;-71
2023/05/10 04:25:49;;;;;;;4.63;3.95;;;;;;;9.93;59.73;98869.34;5024725;28;20313;-71
2023/05/10 04:28:16;;;;;;;6.68;4.65;;;;;;;10.12;59.92;98905.28;5024708;28;20087;-71
2023/05/10 04:30:43;;;;;;;5.57;4.43;;;;;;;10.10;59.94;98901.88;5025582;28;20042;-71
2023/05/10 04:33:09;;;;;;;4.93;4.30;;;;;;;10.05;59.99;98909.25;5025846;28;20042;-70
2023/05/10 04:35:39;;;;;;;5.30;4.03;;;;;;;10.05;60.28;98912.75;5024778;28;20053;-71
2023/05/10 04:38:06;;;;;;;5.32;4.35;;;;;;;10.05;60.03;98909.25;5025838;28;20052;-71
2023/05/10 04:40:34;;;;;;;5.28;4.18;;;;;;;10.07;60.14;98904.72;5025749;28;20052;-71
2023/05/10 04:43:00;;;;;;;7.00;3.95;;;;;;;10.09;60.18;98908.97;5025517;28;20045;-71
2023/05/10 04:45:27;;;;;;;5.38;4.43;;;;;;;9.84;59.99;98869.88;5025408;28;20041;-70
2023/05/10 04:47:54;;;;;;;5.38;4.22;;;;;;;10.13;60.04;98909.66;5025997;28;20053;-70
2023/05/10 04:50:20;;;;;;;5.93;4.38;;;;;;;10.15;59.79;98910.41;5024977;28;20046;-71
2023/05/10 04:52:48;;;;;;;8.20;4.78;;;;;;;10.17;60.15;98912.00;5025656;28;20088;-70
2023/05/10 04:55:15;;;;;;;7.32;5.22;;;;;;;10.15;60.20;98911.25;5024514;28;20044;-70
2023/05/10 04:57:42;;;;;;;5.35;4.47;;;;;;;10.15;60.08;98913.06;5025609;28;20096;-71
2023/05/10 05:00:10;;;;;;;5.47;4.72;;;;;;;10.18;59.82;98900.47;5024505;28;20313;-70
2023/05/10 05:02:37;;;;;;;6.47;4.93;;;;;;;10.24;59.79;98904.56;5025236;28;20359;-70
2023/05/10 05:05:04;;;;;;;8.25;4.63;;;;;;;10.26;59.91;98910.59;5024432;28;20323;-70
2023/05/10 05:07:30;;;;;;;5.38;4.75;;;;;;;9.77;60.53;98850.03;5025856;28;20171;-71
2023/05/10 05:09:59;;;;;;;6.18;4.85;;;;;;;10.29;60.14;98905.13;5025683;28;20038;-70
2023/05/10 05:12:25;;;;;;;5.70;4.85;;;;;;;10.33;59.57;98908.44;5025140;28;20046;-71
2023/05/10 05:14:52;;;;;;;6.18;5.25;;;;;;;10.39;59.76;98902.75;5025634;28;20045;-71
2023/05/10 05:17:19;;;;;;;6.70;5.10;;;;;;;10.43;59.59;98912.22;5025058;28;20045;-70
2023/05/10 05:19:45;;;;;;;5.85;4.88;;;;;;;10.46;59.44;98904.94;5024966;28;20057;-70
2023/05/10 05:22:12;;;;;;;5.80;5.03;;;;;;;10.53;59.28;98916.00;5024968;28;20038;-71
2023/05/10 05:24:39;;;;;;;6.22;4.95;;;;;;;10.59;59.25;98903.22;5024946;28;20090;-70
2023/05/10 05:27:07;;;;;;;6.47;4.97;;;;;;;10.65;59.08;98899.34;5027873;28;20121;-70
2023/05/10 05:29:34;;;;;;;6.85;5.63;;;;;;;10.20;59.55;98826.22;5029221;28;20089;-71
2023/05/10 05:32:01;;;;;;;7.05;4.50;;;;;;;10.76;59.14;98896.88;5028610;28;20038;-70
2023/05/10 05:34:27;;;;;;;6.93;5.18;;;;;;;10.84;58.71;98904.38;5028542;28;20050;-71
2023/05/10 05:36:55;;;;;;;6.65;5.63;;;;;;;10.89;58.50;98900.47;5028696;28;20315;-70
2023/05/10 05:39:22;;;;;;;6.93;5.63;;;;;;;10.97;58.36;98896.50;5028630;28;20088;-71
2023/05/10 05:41:48;;;;;;;5.75;4.43;;;;;;;11.04;58.26;98896.00;5028172;28;20320;-71
2023/05/10 05:44:16;;;;;;;6.47;4.97;;;;;;;11.11;58.04;98892.00;5028740;28;20112;-71
2023/05/10 05:46:43;;;;;;;6.38;4.55;;;;;;;11.19;58.25;98899.47;5028288;28;20053;-70
2023/05/10 05:49:10;;;;;;;10.23;5.93;;;;;;;11.28;57.55;98901.50;5027896;28;20242;-70
2023/05/10 05:51:37;;;;;;;6.07;4.72;;;;;;;11.38;57.53;98897.31;5028310;28;20044;-71
2023/05/10 05:54:04;;;;;;;6.15;4.85;;;;;;;11.47;57.30;98896.72;5028429;28;20048;-71
2023/05/10 05:56:31;;;;;;;6.63;5.35;;;;;;;11.56;57.23;98896.09;5027363;28;20280;-70
2023/05/10 05:58:57;;;;;;;5.68;4.65;;;;;;;11.67;56.92;98902.50;5028499;28;20113;-70
2023/05/10 06:01:26;;;;;;;6.30;5.03;;;;;;;11.75;57.21;98901.03;5027275;28;20116;-70
2023/05/10 06:03:52;;;;;;;7.40;5.45;;;;;;;11.83;57.01;98919.94;5027156;28;20053;-69
2023/05/10 06:06:19;;;;;;;7.13;5.47;;;;;;;11.92;56.56;98899.88;5028581;28;20045;-70
2023/05/10 06:08:45;;;;;;;5.93;4.82;;;;;;;12.00;56.38;98902.91;5027980;28;20042;-70
2023/05/10 06:11:12;;;;;;;7.45;4.95;;;;;;;12.08;56.18;98907.69;5027934;28;20060;-71
2023/05/10 06:13:39;;;;;;;7.18;4.95;;;;;;;12.17;56.10;98915.06;5028217;28;20290;-70
2023/05/10 06:16:06;;;;;;;6.57;5.30;;;;;;;12.25;56.00;98922.50;5028206;28;20053;-70
2023/05/10 06:18:34;;;;;;;6.63;5.40;;;;;;;12.33;55.84;98914.88;5028206;28;20116;-70
2023/05/10 06:21:01;;;;;;;6.03;4.60;;;;;;;12.40;55.47;98901.03;5026616;28;20077;-70
2023/05/10 06:23:28;;;;;;;6.10;4.50;;;;;;;12.51;55.20;98909.13;5026785;28;20038;-69
2023/05/10 06:25:55;;;;;;;7.07;5.07;;;;;;;12.60;55.09;98909.44;5026699;28;20320;-70
2023/05/10 06:28:22;;;;;;;6.32;4.82;;;;;;;12.68;54.77;98901.75;5027660;28;20092;-70
2023/05/10 06:30:48;;;;;;;7.63;5.43;;;;;;;12.81;54.25;98913.22;5026832;28;20332;-70
2023/05/10 06:33:15;;;;;;;8.00;4.80;;;;;;;12.89;54.35;98910.88;5027846;28;20109;-70
2023/05/10 06:35:44;;;;;;;4.80;4.30;;;;;;;12.98;53.96;98915.53;5027319;28;20042;-70
2023/05/10 06:38:10;;;;;;;5.38;4.40;;;;;;;13.11;53.54;98915.50;5027638;28;20069;-71
2023/05/10 06:40:37;;;;;;;7.32;4.88;;;;;;;13.23;53.14;98921.72;5026491;28;20096;-70
2023/05/10 06:43:04;;;;;;;6.45;4.35;;;;;;;13.32;52.62;98924.56;5027522;28;20185;-70
2023/05/10 06:45:31;;;;;;;7.38;4.72;;;;;;;13.44;52.45;98910.41;5027236;28;20042;-70
2023/05/10 06:47:57;;;;;;;6.47;4.93;;;;;;;13.59;52.68;98916.41;5027623;28;20061;-69
2023/05/10 06:50:24;;;;;;;6.75;4.65;;;;;;;13.78;51.89;98914.06;5027798;28;20042;-70
2023/05/10 06:52:52;;;;;;;6.07;4.05;;;;;;;13.94;51.61;98915.56;5027684;28;20166;-70
2023/05/10 06:55:19;;;;;;;7.93;5.15;;;;;;;13.96;51.11;98901.16;5027635;28;20049;-71
2023/05/10 06:57:47;;;;;;;5.57;4.43;;;;;;;14.26;50.85;98915.75;5026195;28;20201;-70
2023/05/10 07:00:15;;;;;;;8.35;5.45;;;;;;;14.41;50.17;98906.56;5026825;28;20061;-69
2023/05/10 07:02:41;;;;;;;7.38;5.43;;;;;;;14.49;49.81;98911.31;5026596;28;20064;-70
2023/05/10 07:05:09;;;;;;;7.30;4.93;;;;;;;14.65;49.54;98906.53;5027347;28;20037;-69
2023/05/10 07:07:36;;;;;;;6.55;4.68;;;;;;;14.82;49.51;98906.06;5026765;28;20038;-70
2023/05/10 07:10:05;;;;;;;5.55;4.32;;;;;;;14.94;48.82;98905.06;5027393;28;20117;-70
2023/05/10 07:12:31;;;;;;;7.72;5.68;;;;;;;15.06;48.48;98901.41;5027027;28;20041;-70
2023/05/10 07:14:58;;;;;;;6.75;4.85;;;;;;;15.16;48.74;98900.66;5026007;28;20042;-70
2023/05/10 07:17:25;;;;;;;5.82;4.53;;;;;;;15.26;48.58;98890.94;5027605;28;20245;-70
2023/05/10 07:19:52;;;;;;;8.00;5.10;;;;;;;15.43;48.36;98897.56;5026423;28;20209;-71
2023/05/10 07:22:19;;;;;;;5.03;4.32;;;;;;;15.46;47.87;98908.84;5025708;28;20171;-70
2023/05/10 07:24:46;;;;;;;7.05;4.53;;;;;;;15.59;47.62;98898.00;5025776;28;20297;-70
2023/05/10 07:27:14;;;;;;;5.60;4.85;;;;;;;15.58;47.01;98890.97;5025663;28;20037;-70
2023/05/10 07:29:41;;;;;;;7.57;4.53;;;;;;;15.74;47.42;98886.06;5026618;28;20054;-71
2023/05/10 07:32:08;;;;;;;7.32;4.75;;;;;;;15.78;46.38;98903.53;5025582;28;20214;-70
2023/05/10 07:34:34;;;;;;;6.40;4.28;;;;;;;15.70;47.49;98887.31;5025594;28;20034;-70
2023/05/10 07:37:01;;;;;;;5.82;4.72;;;;;;;15.86;47.03;98913.59;5025533;28;20388;-70
2023/05/10 07:39:28;;;;;;;7.45;4.93;;;;;;;15.45;47.18;98851.06;5026598;28;20285;-70
2023/05/10 07:41:55;;;;;;;5.90;4.97;;;;;;;15.85;47.49;98887.84;5025127;28;20092;-70
2023/05/10 07:44:24;;;;;;;6.43;4.78;;;;;;;15.86;46.85;98894.88;5025257;28;20088;-70
2023/05/10 07:46:51;;;;;;;6.95;4.47;;;;;;;15.95;47.38;98878.91;5025369;28;20042;-71
2023/05/10 07:49:17;;;;;;;6.40;5.25;;;;;;;16.11;46.66;98880.28;5026196;28;20038;-70
2023/05/10 07:51:44;;;;;;;7.47;4.78;;;;;;;16.25;47.05;98883.47;5025482;28;20297;-71
2023/05/10 07:54:11;;;;;;;5.53;4.32;;;;;;;16.32;46.86;98887.31;5026234;28;20377;-70
2023/05/10 07:56:39;;;;;;;9.93;6.63;;;;;;;16.36;46.46;98901.25;5026633;28;20109;-69
2023/05/10 07:59:06;;;;;;;9.20;5.40;;;;;;;16.27;46.47;98904.72;5025839;28;20041;-70
2023/05/10 08:01:35;;;;;;;6.78;5.22;;;;;;;16.23;46.04;98896.13;5025746;28;20290;-69
2023/05/10 08:04:02;;;;;;;6.50;4.28;;;;;;;16.29;46.89;98897.44;5026352;28;20048;-69
2023/05/10 08:06:29;;;;;;;5.25;4.63;;;;;;;16.52;46.65;98893.63;5026157;28;20065;-69
2023/05/10 08:08:57;;;;;;;5.93;4.68;;;;;;;16.75;46.55;98896.13;5024965;28;20328;-69
2023/05/10 08:11:24;;;;;;;6.22;4.85;;;;;;;16.65;45.91;98904.09;5024883;28;20364;-69
2023/05/10 08:13:51;;;;;;;6.53;4.80;;;;;;;16.46;47.15;98912.88;5026291;28;20049;-70
2023/05/10 08:16:19;;;;;;;5.88;4.65;;;;;;;16.53;46.57;98889.09;5024911;28;20038;-69
2023/05/10 08:18:48;;;;;;;5.65;4.60;;;;;;;16.57;46.41;98878.00;5024566;28;20038;-70
2023/05/10 08:21:15;;;;;;;9.40;6.15;;;;;;;16.80;46.33;98884.03;5024347;28;20041;-70
2023/05/10 08:23:43;;;;;;;11.02;5.40;;;;;;;16.72;45.79;98899.94;5025398;28;20116;-69
2023/05/10 08:26:10;;;;;;;8.40;4.75;;;;;;;16.56;45.40;98895.03;5026063;28;20056;-71
2023/05/10 08:28:37;;;;;;;6.60;4.82;;;;;;;16.55;46.47;98919.25;5025815;28;20038;-69
2023/05/10 08:31:05;;;;;;;6.20;4.88;;;;;;;16.58;46.31;98918.97;5024647;28;20042;-69
2023/05/10 08:33:32;;;;;;;7.07;4.30;;;;;;;16.50;46.32;98910.78;5024565;28;20274;-69
2023/05/10 08:36:00;;;;;;;10.00;4.80;;;;;;;16.44;46.50;98904.13;5025523;28;20038;-69
2023/05/10 08:38:27;;;;;;;6.35;4.13;;;;;;;16.26;46.89;98901.22;5025750;28;20187;-70
2023/05/10 08:40:56;;;;;;;6.60;4.70;;;;;;;16.18;46.33;98917.06;5024571;28;20121;-69
2023/05/10 08:43:27;;;;;;;5.60;4.30;;;;;;;16.17;46.22;98925.22;5025883;28;20038;-69
2023/05/10 08:45:55;;;;;;;4.90;3.90;;;;;;;16.32;46.27;98899.84;5025083;28;20057;-70
2023/05/10 08:48:24;;;;;;;6.18;4.35;;;;;;;16.30;45.80;98901.78;5025287;28;20116;-69
2023/05/10 08:50:54;;;;;;;5.82;3.95;;;;;;;16.24;46.20;98896.97;5024327;28;20045;-69
2023/05/10 08:53:25;;;;;;;10.48;4.88;;;;;;;16.34;46.94;98900.56;5025727;28;20042;-71
2023/05/10 08:55:52;;;;;;;5.22;4.07;;;;;;;16.51;46.83;98915.16;5024402;28;20041;-71
2023/05/10 08:58:20;;;;;;;5.38;4.40;;;;;;;16.23;46.35;98839.13;5024411;28;20038;-70
2023/05/10 09:00:50;;;;;;;6.75;4.30;;;;;;;16.87;46.30;98893.22;5026213;28;20042;-70
2023/05/10 09:03:17;;;;;;;5.28;4.32;;;;;;;16.95;45.62;98896.06;5029096;28;20033;-70
2023/05/10 09:05:45;;;;;;;5.90;3.88;;;;;;;16.97;45.49;98901.28;5029435;28;20038;-72
2023/05/10 09:08:12;;;;;;;4.85;3.88;;;;;;;16.59;45.64;98856.47;5029378;28;20221;-70
2023/05/10 09:10:43;;;;;;;5.90;3.72;;;;;;;16.75;45.20;98888.97;5028215;28;20041;-70
2023/05/10 09:13:11;;;;;;;10.70;5.25;;;;;;;16.80;45.75;98878.69;5029652;28;20096;-70
2023/05/10 09:15:38;;;;;;;6.07;4.15;;;;;;;16.84;45.26;98904.22;5029221;28;20061;-70
2023/05/10 09:18:05;;;;;;;6.13;3.17;;;;;;;16.67;45.82;98875.41;5029265;28;20045;-70
2023/05/10 09:20:32;;;;;;;4.47;2.88;;;;;;;16.93;45.68;98881.97;5028817;28;20049;-70
2023/05/10 09:22:58;;;;;;;7.88;3.75;;;;;;;17.05;45.02;98903.28;5028811;28;20050;-70
2023/05/10 09:25:25;;;;;;;7.60;3.15;;;;;;;16.99;45.33;98897.50;5029078;28;20304;-69
2023/05/10 09:27:53;;;;;;;5.90;3.22;;;;;;;16.91;45.47;98899.16;5028714;28;20042;-70
2023/05/10 09:30:25;;;;;;;6.50;3.08;;;;;;;16.87;44.85;98914.63;5028721;28;20237;-70
2023/05/10 09:32:52;;;;;;;8.85;2.70;;;;;;;16.94;44.98;98894.38;5028611;28;20042;-70
2023/05/10 09:35:20;;;;;;;8.98;3.47;;;;;;;16.96;43.89;98902.28;5028525;28;20056;-70
2023/05/10 09:37:49;;;;;;;7.30;2.55;;;;;;;16.75;44.62;98858.69;5027457;28;20046;-70
2023/05/10 09:40:17;;;;;;;3.28;2.20;;;;;;;16.90;44.97;98894.78;5028571;28;20301;-69
2023/05/10 09:42:55;;;;;;;5.95;2.58;;;;;;;16.92;43.33;98898.19;5028590;28;20046;-70
2023/05/10 09:45:23;;;;;;;3.55;2.65;;;;;;;16.86;44.10;98904.06;5029019;28;20113;-70
2023/05/10 09:47:51;;;;;;;4.68;2.20;;;;;;;16.71;44.39;98887.53;5028367;28;20064;-70
2023/05/10 09:50:18;;;;;;;3.20;2.40;;;;;;;16.82;44.99;98894.63;5027350;28;20049;-70
2023/05/10 09:52:52;;;;;;;4.07;2.17;;;;;;;16.91;44.75;98885.78;5028936;28;20048;-70
2023/05/10 09:55:20;;;;;;;4.57;2.40;;;;;;;17.13;45.27;98892.75;5027349;28;20042;-70
2023/05/10 09:57:48;;;;;;;3.28;1.90;;;;;;;16.53;44.56;98764.22;5028240;28;20053;-70
2023/05/10 10:00:20;;;;;;;4.43;2.65;;;;;;;17.38;43.20;98878.03;5028120;28;20040;-70
2023/05/10 10:02:49;;;;;;;6.05;2.28;;;;;;;17.24;42.76;98868.56;5028277;28;20308;-70
2023/05/10 10:05:16;;;;;;;5.32;2.38;;;;;;;17.37;44.15;98884.38;5027909;28;20046;-70
2023/05/10 10:07:43;;;;;;;3.05;2.10;;;;;;;17.26;43.51;98890.69;5028416;28;20112;-70
2023/05/10 10:10:12;;;;;;;6.45;2.83;;;;;;;17.09;42.92;98886.81;5027113;28;20083;-70
2023/05/10 10:12:40;;;;;;;3.00;2.30;;;;;;;17.00;43.55;98877.78;5027850;28;20181;-69
2023/05/10 10:15:08;;;;;;;2.63;2.00;;;;;;;16.29;44.13;98767.25;5028242;28;20044;-70
2023/05/10 10:17:38;;;;;;;4.22;2.47;;;;;;;16.92;44.11;98877.59;5026834;28;20064;-71
2023/05/10 10:20:05;;;;;;;4.65;2.15;;;;;;;16.97;44.24;98886.06;5026472;28;20061;-70
2023/05/10 10:22:32;;;;;;;3.85;2.25;;;;;;;17.10;44.16;98872.44;5027849;28;20302;-70
2023/05/10 10:24:59;;;;;;;3.97;2.40;;;;;;;17.27;43.25;98865.59;5027856;28;20042;-71
2023/05/10 10:27:36;;;;;;;3.28;2.25;;;;;;;17.34;43.23;98893.53;5026785;28;20041;-70
2023/05/10 10:30:14;;;;;;;6.97;2.63;;;;;;;17.42;43.67;98877.59;5027915;28;20198;-71
2023/05/10 10:33:01;;;;;;;5.10;2.30;;;;;;;17.36;41.93;98843.34;5027679;28;20096;-71
2023/05/10 10:35:30;;;;;;;3.58;2.05;;;;;;;17.59;42.57;98851.94;5027629;28;20094;-71
2023/05/10 10:37:57;;;;;;;4.45;1.90;;;;;;;17.83;42.89;98863.13;5026549;28;20037;-71
2023/05/10 10:40:26;;;;;;;4.18;2.15;;;;;;;17.96;42.19;98881.59;5027482;28;20038;-71
2023/05/10 10:42:53;;;;;;;3.65;2.20;;;;;;;17.61;41.84;98801.78;5026826;28;20069;-71
2023/05/10 10:45:21;;;;;;;3.30;2.20;;;;;;;16.45;41.26;98595.56;5027247;28;20038;-71
2023/05/10 10:47:51;;;;;;;4.50;2.10;;;;;;;17.82;41.73;98804.28;5027368;28;20233;-71
2023/05/10 10:50:18;;;;;;;4.05;2.33;;;;;;;18.18;41.57;98864.34;5027549;28;20041;-71
2023/05/10 10:52:45;;;;;;;3.50;2.22;;;;;;;18.05;41.60;98867.31;5027293;28;20038;-71
2023/05/10 10:55:14;;;;;;;4.00;2.28;;;;;;;17.91;42.02;98865.09;5027351;28;20037;-71
2023/05/10 10:57:46;;;;;;;3.65;1.95;;;;;;;17.89;41.36;98875.09;5027574;28;20370;-71
2023/05/10 11:00:21;;;;;;;6.20;2.30;;;;;;;17.84;40.92;98869.31;5026264;28;20052;-71
2023/05/10 11:02:51;;;;;;;4.13;2.10;;;;;;;17.81;42.19;98866.94;5025740;28;20056;-71
2023/05/10 11:05:38;;;;;;;3.45;2.30;;;;;;;17.75;41.84;98862.97;5027016;28;20046;-71
2023/05/10 11:08:10;;;;;;;3.72;2.50;;;;;;;17.68;42.29;98848.47;5026799;28;20273;-71
2023/05/10 11:10:37;;;;;;;5.07;2.55;;;;;;;17.64;42.51;98873.84;5027256;28;20052;-70
2023/05/10 11:13:05;;;;;;;3.42;2.60;;;;;;;17.25;42.36;98817.53;5026834;28;20057;-71
2023/05/10 11:15:33;;;;;;;4.57;2.28;;;;;;;17.77;43.02;98863.69;5027172;28;20131;-71
2023/05/10 11:18:17;;;;;;;2.95;2.28;;;;;;;17.39;42.72;98786.81;5009751;28;20045;-71
2023/05/10 11:20:44;;;;;;;5.87;2.40;;;;;;;17.95;42.53;98863.81;5026368;28;20050;-71
2023/05/10 11:23:17;;;;;;;4.40;2.47;;;;;;;17.78;40.91;98827.00;5026454;28;20506;-71
2023/05/10 11:25:45;;;;;;;5.40;2.30;;;;;;;17.94;42.01;98873.69;5026253;28;20038;-70
2023/05/10 11:28:12;;;;;;;3.92;2.38;;;;;;;17.98;42.32;98860.84;5026562;28;20360;-71
2023/05/10 11:30:40;;;;;;;3.88;2.00;;;;;;;18.00;42.42;98848.16;5026768;28;20037;-71
2023/05/10 11:33:09;;;;;;;4.45;2.42;;;;;;;18.08;41.92;98855.47;5026754;28;20042;-71
2023/05/10 11:35:39;;;;;;;5.90;2.28;;;;;;;17.98;42.02;98865.38;5026598;28;20053;-71
2023/05/10 11:38:07;;;;;;;5.43;2.42;;;;;;;17.97;41.99;98844.91;5025468;28;20129;-71
2023/05/10 11:40:34;;;;;;;4.28;2.33;;;;;;;18.00;42.33;98877.63;5026242;28;20045;-71